createdAt,value
2018-05-09T04:52:02.423Z,9.07
2018-05-09T04:54:06.505Z,10.38
2018-05-09T04:56:10.707Z,11.43
2018-05-09T04:58:14.733Z,9.70
2018-05-09T05:00:18.921Z,8.80
2018-05-09T05:02:23.483Z,9.57
2018-05-09T05:04:28.650Z,10.57
2018-05-09T05:06:33.977Z,8.32
2018-05-09T05:08:38.499Z,10.15
2018-05-09T05:10:43.525Z,10.93
2018-05-09T05:12:48.009Z,9.95
2018-05-09T05:14:52.432Z,7.37
2018-05-09T05:16:56.668Z,10.30
2018-05-09T05:19:00.936Z,8.57
2018-05-09T05:21:05.637Z,10.07
2018-05-09T05:23:10.227Z,11.45
2018-05-09T05:25:15.846Z,11.20
2018-05-09T05:27:20.069Z,11.32
2018-05-09T05:29:24.142Z,10.43
2018-05-09T05:31:28.280Z,10.02
2018-05-09T05:33:34.125Z,9.75
2018-05-09T05:35:38.732Z,9.63
2018-05-09T05:37:42.738Z,12.73
2018-05-09T05:39:46.437Z,14.07
2018-05-09T05:41:50.811Z,11.27
2018-05-09T05:43:54.772Z,13.90
2018-05-09T05:45:58.560Z,11.57
2018-05-09T05:48:02.481Z,12.37
2018-05-09T05:50:07.291Z,11.40
2018-05-09T05:52:11.632Z,11.83
2018-05-09T05:54:16.749Z,10.77
2018-05-09T05:56:20.796Z,11.57
2018-05-09T05:58:24.557Z,12.13
2018-05-09T06:00:28.552Z,11.90
2018-05-09T06:02:32.672Z,12.53
2018-05-09T06:04:36.674Z,11.30
2018-05-09T06:06:41.188Z,8.70
2018-05-09T06:08:45.032Z,13.70
2018-05-09T06:10:49.237Z,14.73
2018-05-09T06:12:53.530Z,18.00
2018-05-09T06:14:57.559Z,13.63
2018-05-09T06:17:02.000Z,8.77
2018-05-09T06:19:06.066Z,13.90
2018-05-09T06:21:10.121Z,16.27
2018-05-09T06:23:14.546Z,12.10
2018-05-09T06:25:18.624Z,14.30
2018-05-09T06:27:23.246Z,17.63
2018-05-09T06:29:27.115Z,16.30
2018-05-09T06:31:32.207Z,18.27
2018-05-09T06:33:36.286Z,12.53
2018-05-09T06:35:40.590Z,10.13
2018-05-09T06:37:44.613Z,15.20
2018-05-09T06:39:48.617Z,19.57
2018-05-09T06:41:52.710Z,14.67
2018-05-09T06:43:57.228Z,13.23
2018-05-09T06:46:01.101Z,11.17
2018-05-09T06:48:04.929Z,12.87
2018-05-09T06:50:09.585Z,14.23
2018-05-09T06:52:14.585Z,10.87
2018-05-09T06:54:19.048Z,9.67
2018-05-09T06:56:23.531Z,11.07
2018-05-09T06:58:27.733Z,10.77
2018-05-09T07:00:34.552Z,10.97
2018-05-09T07:02:38.721Z,11.77
2018-05-09T07:04:42.826Z,14.43
2018-05-09T07:06:47.080Z,17.27
2018-05-09T07:08:50.927Z,16.63
2018-05-09T07:10:56.198Z,13.63
2018-05-09T07:13:01.102Z,12.23
2018-05-09T07:15:10.419Z,19.03
2018-05-09T07:35:56.089Z,6.97
2018-05-09T07:38:00.469Z,11.13
2018-05-09T07:40:05.004Z,7.20
2018-05-09T07:42:09.569Z,8.47
2018-05-09T07:44:14.044Z,8.53
2018-05-09T07:46:18.381Z,7.33
2018-05-09T07:48:22.412Z,8.03
2018-05-09T07:50:26.447Z,11.97
2018-05-09T07:52:30.341Z,8.10
2018-05-09T07:54:34.497Z,6.60
2018-05-09T07:56:38.753Z,5.03
2018-05-09T07:58:43.408Z,5.00
2018-05-09T08:00:47.506Z,5.57
2018-05-09T08:02:52.022Z,6.20
2018-05-09T08:04:55.605Z,5.77
2018-05-09T08:07:00.389Z,5.90
2018-05-09T08:09:03.789Z,5.77
2018-05-09T08:11:07.712Z,6.10
2018-05-09T08:13:11.414Z,5.27
2018-05-09T08:15:15.137Z,4.73
2018-05-09T08:17:19.282Z,6.27
2018-05-09T08:19:22.847Z,10.37
2018-05-09T08:21:26.443Z,6.77
2018-05-09T08:23:30.098Z,3.47
2018-05-09T08:25:33.871Z,4.63
2018-05-09T08:27:38.660Z,7.43
2018-05-09T08:29:42.595Z,7.87
2018-05-09T08:31:46.345Z,3.77
2018-05-09T08:33:50.003Z,5.83
2018-05-09T08:35:53.632Z,5.00
2018-05-09T08:37:57.382Z,3.83
2018-05-09T08:40:01.144Z,4.83
2018-05-09T08:42:05.259Z,4.93
2018-05-09T08:44:09.478Z,5.80
2018-05-09T08:46:13.293Z,5.90
2018-05-09T08:48:17.014Z,5.73
2018-05-09T08:50:21.065Z,5.90
2018-05-09T08:52:25.232Z,6.93
2018-05-09T08:54:29.015Z,4.73
2018-05-09T08:56:32.608Z,5.32
2018-05-09T08:58:36.324Z,6.28
2018-05-09T09:00:40.407Z,3.42
2018-05-09T09:02:44.683Z,3.72
2018-05-09T09:04:48.921Z,5.03
2018-05-09T09:06:53.071Z,7.07
2018-05-09T09:08:57.223Z,3.45
2018-05-09T09:11:01.373Z,6.15
2018-05-09T09:13:05.524Z,5.82
2018-05-09T09:15:09.648Z,5.95
2018-05-09T09:17:13.609Z,7.03
2018-05-09T09:19:18.812Z,5.00
2018-05-09T09:21:22.387Z,5.45
2018-05-09T09:23:26.540Z,5.35
2018-05-09T09:25:30.123Z,3.45
2018-05-09T09:27:34.241Z,5.95
2018-05-09T09:29:38.351Z,6.05
2018-05-09T09:31:43.112Z,6.15
2018-05-09T09:33:47.236Z,4.43
2018-05-09T09:35:51.416Z,4.62
2018-05-09T09:37:55.534Z,5.05
2018-05-09T09:39:59.631Z,3.67
2018-05-09T09:42:03.654Z,3.85
2018-05-09T09:44:07.735Z,4.28
2018-05-09T09:46:11.859Z,5.40
2018-05-09T09:48:15.973Z,6.22
2018-05-09T09:50:20.083Z,4.53
2018-05-09T09:52:24.604Z,5.20
2018-05-09T09:54:28.707Z,10.25
2018-05-09T09:56:32.881Z,6.50
2018-05-09T09:58:37.085Z,3.17
2018-05-09T10:00:41.246Z,4.93
2018-05-09T10:02:45.421Z,5.28
2018-05-09T10:04:49.460Z,3.08
2018-05-09T10:06:53.605Z,3.17
2018-05-09T10:08:58.901Z,4.05
2018-05-09T10:11:03.067Z,5.32
2018-05-09T10:13:06.716Z,5.07
2018-05-09T10:15:10.329Z,9.57
2018-05-09T10:17:14.048Z,5.23
2018-05-09T10:19:17.603Z,4.37
2018-05-09T10:21:21.178Z,6.27
2018-05-09T10:23:24.774Z,5.77
2018-05-09T10:25:28.314Z,5.57
2018-05-09T10:27:31.979Z,5.47
2018-05-09T10:29:35.595Z,3.70
2018-05-09T10:31:38.947Z,5.03
2018-05-09T10:33:42.503Z,6.40
2018-05-09T10:35:47.015Z,5.60
2018-05-09T10:37:50.548Z,3.80
2018-05-09T10:39:54.196Z,6.27
2018-05-09T10:41:57.901Z,7.40
2018-05-09T10:44:01.464Z,4.37
2018-05-09T10:46:05.020Z,5.90
2018-05-09T10:48:08.604Z,6.30
2018-05-09T10:50:11.971Z,5.70
2018-05-09T10:52:15.538Z,4.07
2018-05-09T10:54:19.211Z,4.13
2018-05-09T10:56:22.770Z,6.73
2018-05-09T10:58:26.305Z,5.93
2018-05-09T11:00:29.840Z,4.97
2018-05-09T11:02:33.384Z,4.53
2018-05-09T11:04:36.939Z,6.10
2018-05-09T11:06:40.551Z,8.77
2018-05-09T11:08:44.064Z,11.00
2018-05-09T11:10:47.650Z,7.13
2018-05-09T11:12:51.205Z,5.73
2018-05-09T11:14:54.749Z,8.50
2018-05-09T11:16:58.352Z,4.93
2018-05-09T11:19:01.892Z,6.50
2018-05-09T11:21:05.612Z,8.33
2018-05-09T11:23:09.151Z,5.23
2018-05-09T11:25:13.003Z,5.67
2018-05-09T11:27:16.573Z,5.80
2018-05-09T11:29:20.106Z,9.40
2018-05-09T11:31:23.626Z,10.67
2018-05-09T11:33:27.271Z,7.23
2018-05-09T11:35:30.879Z,8.43
2018-05-09T11:37:37.424Z,7.23
2018-05-09T11:39:41.021Z,5.50
2018-05-09T11:41:44.640Z,7.90
2018-05-09T11:43:48.272Z,9.53
2018-05-09T11:45:52.606Z,6.40
2018-05-09T11:47:56.296Z,7.80
2018-05-09T11:50:00.165Z,7.60
2018-05-09T11:52:03.729Z,4.80
2018-05-09T11:54:07.414Z,8.67
2018-05-09T11:56:11.315Z,6.30
2018-05-09T11:58:14.894Z,9.17
2018-05-09T12:00:18.773Z,4.53
2018-05-09T12:02:22.361Z,7.13
2018-05-09T12:04:26.172Z,5.67
2018-05-09T12:06:30.429Z,6.70
2018-05-09T12:08:34.377Z,5.40
2018-05-09T12:10:38.073Z,13.07
2018-05-09T12:12:42.295Z,8.15
2018-05-09T12:14:45.866Z,8.53
2018-05-09T12:16:50.257Z,10.83
2018-05-09T12:18:53.876Z,7.40
2018-05-09T12:20:57.409Z,5.33
2018-05-09T12:23:00.975Z,7.60
2018-05-09T12:25:04.538Z,7.33
2018-05-09T12:27:08.102Z,7.93
2018-05-09T12:29:12.591Z,9.67
2018-05-09T12:31:16.110Z,4.97
2018-05-09T12:33:19.663Z,4.43
2018-05-09T12:35:23.198Z,5.87
2018-05-09T12:37:26.762Z,7.80
2018-05-09T12:39:31.071Z,6.57
2018-05-09T12:41:34.473Z,6.70
2018-05-09T12:43:38.114Z,6.80
2018-05-09T12:45:41.651Z,7.93
2018-05-09T12:47:45.170Z,5.63
2018-05-09T12:49:50.080Z,5.97
2018-05-09T12:51:54.415Z,8.63
2018-05-09T12:53:57.952Z,6.47
2018-05-09T12:56:01.515Z,6.77
2018-05-09T12:58:09.002Z,6.83
2018-05-09T13:00:12.614Z,4.10
2018-05-09T13:02:16.197Z,7.53
2018-05-09T13:04:19.856Z,5.77
2018-05-09T13:06:23.262Z,6.17
2018-05-09T13:08:26.774Z,5.87
2018-05-09T13:10:30.358Z,6.30
2018-05-09T13:12:33.876Z,7.50
2018-05-09T13:14:37.428Z,6.77
2018-05-09T13:16:41.001Z,6.80
2018-05-09T13:18:44.571Z,5.07
2018-05-09T13:20:48.120Z,7.70
2018-05-09T13:22:51.623Z,4.93
2018-05-09T13:24:55.174Z,5.07
2018-05-09T13:26:58.507Z,5.20
2018-05-09T13:29:01.534Z,5.33
2018-05-09T13:31:05.084Z,6.77
2018-05-09T13:33:08.675Z,5.73
2018-05-09T13:35:12.936Z,8.27
2018-05-09T13:37:16.495Z,7.93
2018-05-09T13:39:20.017Z,8.07
2018-05-09T13:41:23.530Z,5.53
2018-05-09T13:43:27.076Z,6.63
2018-05-09T13:45:30.611Z,9.63
2018-05-09T13:47:34.181Z,8.97
2018-05-09T13:49:38.523Z,5.33
2018-05-09T13:51:42.111Z,7.30
2018-05-09T13:53:45.809Z,9.43
2018-05-09T13:55:49.634Z,7.77
2018-05-09T13:57:53.234Z,5.00
2018-05-09T13:59:56.764Z,6.80
2018-05-09T14:02:00.286Z,7.27
2018-05-09T14:04:03.834Z,8.80
2018-05-09T14:06:07.368Z,8.80
2018-05-09T14:08:10.848Z,10.30
2018-05-09T14:10:14.419Z,5.37
2018-05-09T14:12:17.957Z,6.33
2018-05-09T14:14:21.513Z,5.63
2018-05-09T14:16:25.075Z,8.40
2018-05-09T14:18:28.786Z,7.43
2018-05-09T14:20:32.304Z,10.07
2018-05-09T14:22:35.847Z,7.10
2018-05-09T14:24:39.350Z,9.07
2018-05-09T14:26:42.893Z,5.93
2018-05-09T14:28:46.510Z,4.20
2018-05-09T14:30:50.039Z,7.13
2018-05-09T14:32:53.562Z,5.33
2018-05-09T14:34:57.178Z,5.90
2018-05-09T14:37:00.725Z,7.50
2018-05-09T14:39:03.357Z,5.07
2018-05-09T14:41:06.837Z,5.00
2018-05-09T14:43:10.026Z,6.93
2018-05-09T14:45:13.586Z,6.73
2018-05-09T14:47:17.118Z,8.37
2018-05-09T14:49:20.680Z,5.87
2018-05-09T14:51:24.210Z,8.00
2018-05-09T14:53:27.716Z,4.73
2018-05-09T14:55:31.268Z,15.67
2018-05-09T14:57:34.786Z,5.83
2018-05-09T14:59:38.325Z,5.67
2018-05-09T15:01:41.918Z,5.77
2018-05-09T15:03:45.458Z,7.53
2018-05-09T15:05:49.017Z,6.50
2018-05-09T15:07:52.565Z,8.67
2018-05-09T15:09:56.097Z,6.50
2018-05-09T15:11:59.638Z,9.77
2018-05-09T15:14:03.169Z,7.90
2018-05-09T15:16:06.903Z,9.27
2018-05-09T15:18:10.397Z,6.87
2018-05-09T15:20:13.925Z,6.27
2018-05-09T15:22:17.485Z,6.43
2018-05-09T15:24:21.018Z,9.60
2018-05-09T15:26:24.537Z,7.53
2018-05-09T15:28:28.091Z,4.40
2018-05-09T15:30:31.614Z,7.80
2018-05-09T15:32:35.173Z,8.63
2018-05-09T15:34:38.689Z,6.83
2018-05-09T15:36:42.162Z,6.03
2018-05-09T15:38:45.794Z,8.73
2018-05-09T15:40:49.513Z,6.80
2018-05-09T15:42:53.077Z,8.80
2018-05-09T15:44:56.578Z,5.47
2018-05-09T15:46:59.762Z,8.57
2018-05-09T15:49:03.318Z,6.80
2018-05-09T15:51:06.850Z,7.30
2018-05-09T15:53:10.401Z,6.03
2018-05-09T15:55:13.942Z,5.23
2018-05-09T15:57:17.451Z,4.23
2018-05-09T15:59:21.001Z,6.90
2018-05-09T16:01:24.517Z,8.23
2018-05-09T16:03:28.057Z,7.20
2018-05-09T16:05:31.265Z,6.73
2018-05-09T16:07:34.790Z,4.50
2018-05-09T16:09:38.337Z,6.23
2018-05-09T16:11:41.857Z,4.40
2018-05-09T16:13:45.420Z,6.00
2018-05-09T16:15:48.943Z,5.80
2018-05-09T16:17:52.480Z,7.97
2018-05-09T16:19:56.053Z,5.47
2018-05-09T16:21:59.609Z,5.90
2018-05-09T16:24:03.167Z,12.07
2018-05-09T16:26:06.707Z,6.70
2018-05-09T16:28:10.234Z,5.90
2018-05-09T16:30:13.804Z,4.23
2018-05-09T16:32:17.328Z,5.40
2018-05-09T16:34:20.877Z,5.60
2018-05-09T16:36:24.496Z,6.77
2018-05-09T16:38:28.122Z,6.43
2018-05-09T16:40:31.672Z,8.20
2018-05-09T16:42:35.201Z,8.37
2018-05-09T16:44:38.757Z,6.50
2018-05-09T16:46:41.946Z,7.47
2018-05-09T16:48:50.775Z,7.77
2018-05-09T16:50:54.301Z,5.93
2018-05-09T16:52:57.795Z,6.47
2018-05-09T16:55:01.327Z,5.83
2018-05-09T16:57:04.882Z,5.70
2018-05-09T16:59:08.474Z,5.87
2018-05-09T17:01:12.059Z,4.77
2018-05-09T17:03:15.702Z,7.77
2018-05-09T17:05:19.813Z,6.27
2018-05-09T17:07:23.397Z,6.53
2018-05-09T17:09:27.081Z,4.73
2018-05-09T17:11:30.605Z,6.83
2018-05-09T17:13:34.150Z,5.70
2018-05-09T17:15:37.695Z,6.67
2018-05-09T17:17:41.259Z,11.80
2018-05-09T17:19:44.838Z,5.63
2018-05-09T17:22:05.073Z,5.40
2018-05-09T17:24:08.595Z,8.47
2018-05-09T17:26:11.823Z,5.43
2018-05-09T17:28:15.329Z,8.93
2018-05-09T17:30:18.938Z,11.27
2018-05-09T17:32:22.608Z,9.00
2018-05-09T17:34:26.129Z,7.47
2018-05-09T17:36:29.678Z,7.87
2018-05-09T17:38:33.204Z,9.20
2018-05-09T17:40:36.772Z,8.57
2018-05-09T17:42:40.436Z,11.87
2018-05-09T17:44:44.088Z,8.03
2018-05-09T17:46:47.651Z,11.83
2018-05-09T17:48:51.212Z,7.87
2018-05-09T17:50:54.501Z,6.20
2018-05-09T17:52:58.060Z,11.67
2018-05-09T17:55:01.586Z,4.43
2018-05-09T17:57:05.162Z,6.00
2018-05-09T17:59:08.700Z,5.20
2018-05-09T18:01:12.362Z,6.13
2018-05-09T18:03:15.905Z,7.20
2018-05-09T18:05:19.441Z,4.53
2018-05-09T18:07:23.002Z,5.33
2018-05-09T18:09:26.567Z,8.63
2018-05-09T18:11:30.154Z,7.30
2018-05-09T18:13:33.702Z,7.57
2018-05-09T18:15:37.238Z,7.67
2018-05-09T18:17:40.812Z,5.30
2018-05-09T18:19:44.335Z,6.00
2018-05-09T18:21:47.853Z,7.93
2018-05-09T18:23:51.420Z,8.03
2018-05-09T18:25:54.942Z,5.80
2018-05-09T18:27:58.449Z,6.17
2018-05-09T18:30:02.103Z,7.73
2018-05-09T18:32:05.695Z,8.87
2018-05-09T18:34:09.245Z,7.13
2018-05-09T18:36:12.771Z,9.50
2018-05-09T18:38:16.368Z,7.37
2018-05-09T18:40:19.925Z,6.60
2018-05-09T18:42:23.457Z,10.73
2018-05-09T18:44:27.009Z,12.57
2018-05-09T18:46:30.549Z,12.03
2018-05-09T18:48:34.093Z,13.57
2018-05-09T18:50:37.658Z,10.97
2018-05-09T18:52:41.195Z,9.00
2018-05-09T18:54:44.818Z,10.17
2018-05-09T18:56:48.365Z,12.00
2018-05-09T18:58:51.953Z,12.73
2018-05-09T19:00:55.261Z,10.53
2018-05-09T19:02:58.775Z,6.80
2018-05-09T19:05:01.677Z,9.40
2018-05-09T19:07:05.217Z,7.80
2018-05-09T19:09:08.777Z,7.10
2018-05-09T19:11:12.318Z,10.37
2018-05-09T19:13:15.845Z,7.80
2018-05-09T19:15:19.384Z,9.90
2018-05-09T19:17:22.929Z,8.53
2018-05-09T19:19:26.481Z,8.70
2018-05-09T19:21:29.994Z,7.53
2018-05-09T19:23:33.514Z,7.70
2018-05-09T19:25:37.067Z,9.23
2018-05-09T19:27:40.593Z,9.17
2018-05-09T19:29:44.128Z,12.90
2018-05-09T19:31:47.686Z,10.47
2018-05-09T19:33:51.229Z,10.37
2018-05-09T19:35:54.773Z,16.07
2018-05-09T19:37:58.293Z,9.97
2018-05-09T19:40:01.796Z,12.00
2018-05-09T19:42:05.359Z,12.13
2018-05-09T19:44:08.874Z,8.97
2018-05-09T19:46:12.429Z,11.47
2018-05-09T19:48:15.734Z,12.87
2018-05-09T19:50:19.277Z,10.53
2018-05-09T19:52:22.829Z,7.27
2018-05-09T19:54:26.371Z,9.93
2018-05-09T19:56:30.042Z,10.87
2018-05-09T19:58:33.559Z,8.87
2018-05-09T20:00:37.088Z,11.03
2018-05-09T20:02:40.628Z,8.33
2018-05-09T20:04:44.153Z,8.73
2018-05-09T20:06:47.713Z,10.63
2018-05-09T20:08:51.245Z,8.67
2018-05-09T20:10:54.778Z,8.83
2018-05-09T20:12:58.326Z,8.77
2018-05-09T20:15:01.849Z,8.43
2018-05-09T20:17:05.125Z,10.27
2018-05-09T20:19:08.648Z,9.60
2018-05-09T20:21:11.824Z,9.67
2018-05-09T20:23:15.369Z,10.73
2018-05-09T20:25:18.891Z,9.63
2018-05-09T20:27:22.425Z,8.43
2018-05-09T20:29:25.970Z,11.17
2018-05-09T20:31:46.143Z,9.47
2018-05-09T20:33:49.679Z,9.00
2018-05-09T20:35:53.238Z,11.33
2018-05-09T20:37:56.933Z,12.73
2018-05-09T20:40:00.457Z,8.80
2018-05-09T20:42:04.016Z,10.63
2018-05-09T20:44:07.718Z,13.47
2018-05-09T20:46:11.241Z,14.37
2018-05-09T20:48:14.789Z,11.57
2018-05-09T20:50:18.274Z,10.40
2018-05-09T20:52:21.462Z,13.73
2018-05-09T20:54:25.043Z,9.90
2018-05-09T20:56:28.593Z,9.87
2018-05-09T20:58:32.163Z,10.17
2018-05-09T21:00:35.704Z,13.93
2018-05-09T21:02:39.223Z,10.23
2018-05-09T21:04:42.780Z,8.07
2018-05-09T21:06:45.933Z,10.13
2018-05-09T21:08:49.121Z,8.80
2018-05-09T21:10:52.654Z,8.43
2018-05-09T21:12:56.182Z,9.03
2018-05-09T21:14:59.376Z,12.43
2018-05-09T21:17:02.537Z,10.27
2018-05-09T21:19:06.305Z,10.97
2018-05-09T21:21:09.826Z,11.10
2018-05-09T21:23:12.994Z,10.50
2018-05-09T21:25:16.538Z,10.37
2018-05-09T21:27:19.370Z,11.80
2018-05-09T21:29:22.937Z,12.90
2018-05-09T21:31:26.463Z,14.97
2018-05-09T21:33:29.984Z,13.77
2018-05-09T21:35:33.544Z,12.47
2018-05-09T21:37:37.074Z,11.87
2018-05-09T21:39:40.619Z,13.13
2018-05-09T21:41:44.134Z,13.27
2018-05-09T21:43:47.667Z,10.10
2018-05-09T21:45:51.212Z,11.93
2018-05-09T21:47:54.743Z,13.03
2018-05-09T21:49:58.081Z,13.43
2018-05-09T21:52:01.625Z,14.00
2018-05-09T21:54:05.165Z,12.87
2018-05-09T21:56:08.739Z,11.27
2018-05-09T21:58:12.267Z,12.00
2018-05-09T22:00:15.819Z,13.30
2018-05-09T22:02:19.330Z,9.53
2018-05-09T22:04:22.862Z,10.40
2018-05-09T22:06:26.414Z,14.83
2018-05-09T22:08:30.130Z,10.73
2018-05-09T22:10:33.657Z,10.40
2018-05-09T22:12:37.205Z,10.90
2018-05-09T22:14:40.729Z,9.43
2018-05-09T22:16:44.305Z,10.97
2018-05-09T22:18:47.836Z,11.70
2018-05-09T22:20:51.358Z,10.40
2018-05-09T22:22:54.934Z,11.13
2018-05-09T22:24:58.514Z,12.33
2018-05-09T22:27:02.052Z,11.30
2018-05-09T22:29:05.623Z,11.37
2018-05-09T22:31:09.166Z,9.53
2018-05-09T22:33:12.745Z,10.70
2018-05-09T22:35:16.279Z,12.50
2018-05-09T22:37:19.601Z,14.63
2018-05-09T22:39:23.110Z,14.10
2018-05-09T22:41:26.668Z,11.40
2018-05-09T22:43:30.222Z,11.60
2018-05-09T22:45:33.743Z,13.47
2018-05-09T22:47:37.302Z,13.30
2018-05-09T22:49:40.826Z,12.03
2018-05-09T22:51:44.321Z,13.33
2018-05-09T22:53:47.857Z,11.57
2018-05-09T22:55:51.426Z,9.50
2018-05-09T22:57:55.008Z,9.60
2018-05-09T22:59:58.543Z,10.37
2018-05-09T23:02:02.074Z,10.83
2018-05-09T23:04:05.656Z,10.30
2018-05-09T23:06:09.203Z,9.80
2018-05-09T23:08:12.735Z,10.63
2018-05-09T23:10:15.936Z,11.30
2018-05-09T23:12:19.622Z,13.53
2018-05-09T23:14:23.183Z,15.37
2018-05-09T23:16:26.729Z,13.90
2018-05-09T23:18:30.298Z,14.93
2018-05-09T23:20:33.806Z,13.20
2018-05-09T23:22:37.340Z,11.47
2018-05-09T23:24:40.681Z,14.13
2018-05-09T23:26:44.211Z,10.53
2018-05-09T23:28:47.808Z,11.80
2018-05-09T23:30:51.357Z,11.33
2018-05-09T23:32:54.890Z,11.73
2018-05-09T23:34:58.439Z,14.33
2018-05-09T23:37:01.644Z,12.70
2018-05-09T23:39:04.531Z,12.83
2018-05-09T23:41:09.004Z,11.50
2018-05-09T23:43:12.585Z,12.00
2018-05-09T23:45:16.142Z,10.10
2018-05-09T23:47:19.670Z,10.63
2018-05-09T23:49:23.212Z,10.60
2018-05-09T23:51:27.079Z,11.40
2018-05-09T23:53:30.284Z,13.60
2018-05-09T23:55:34.101Z,12.97
2018-05-09T23:57:37.797Z,15.17
2018-05-09T23:59:41.330Z,19.17
